sensor_id;sensor_type;location;lat;lon;timestamp;temperature;humidity
11934;DHT22;6026;48.784;9.198;2022-12-07T00:00:55;3.70;99.90
11934;DHT22;6026;48.784;9.198;2022-12-07T00:03:21;3.70;99.90
11934;DHT22;6026;48.784;9.198;2022-12-07T00:05:46;3.70;99.90
11934;DHT22;6026;48.784;9.198;2022-12-07T00:08:12;3.70;99.90
11934;DHT22;6026;48.784;9.198;2022-12-07T00:10:37;3.70;99.90
11934;DHT22;6026;48.784;9.198;2022-12-07T00:13:03;3.70;99.90
11934;DHT22;6026;48.784;9.198;2022-12-07T00:15:28;3.70;99.90
11934;DHT22;6026;48.784;9.198;2022-12-07T00:17:54;3.70;99.90
11934;DHT22;6026;48.784;9.198;2022-12-07T00:20:19;3.70;99.90
11934;DHT22;6026;48.784;9.198;2022-12-07T00:22:45;3.70;99.90
11934;DHT22;6026;48.784;9.198;2022-12-07T00:25:10;3.70;99.90
11934;DHT22;6026;48.784;9.198;2022-12-07T00:27:36;3.70;99.90
11934;DHT22;6026;48.784;9.198;2022-12-07T00:30:02;3.70;99.90
11934;DHT22;6026;48.784;9.198;2022-12-07T00:32:27;3.70;99.90
11934;DHT22;6026;48.784;9.198;2022-12-07T00:34:53;3.70;99.90
11934;DHT22;6026;48.784;9.198;2022-12-07T00:37:18;3.70;99.90
11934;DHT22;6026;48.784;9.198;2022-12-07T00:39:45;3.70;99.90
11934;DHT22;6026;48.784;9.198;2022-12-07T00:42:11;3.70;99.90
11934;DHT22;6026;48.784;9.198;2022-12-07T00:44:37;3.70;99.90
11934;DHT22;6026;48.784;9.198;2022-12-07T00:47:02;3.70;99.90
11934;DHT22;6026;48.784;9.198;2022-12-07T00:49:28;3.70;99.90
11934;DHT22;6026;48.784;9.198;2022-12-07T00:51:53;3.70;99.90
11934;DHT22;6026;48.784;9.198;2022-12-07T00:54:19;3.70;99.90
11934;DHT22;6026;48.784;9.198;2022-12-07T00:56:44;3.60;99.90
11934;DHT22;6026;48.784;9.198;2022-12-07T00:59:12;3.70;99.90
11934;DHT22;6026;48.784;9.198;2022-12-07T01:01:39;3.70;99.90
11934;DHT22;6026;48.784;9.198;2022-12-07T01:04:06;3.60;99.90
11934;DHT22;6026;48.784;9.198;2022-12-07T01:06:32;3.60;99.90
11934;DHT22;6026;48.784;9.198;2022-12-07T01:09:07;3.60;99.90
11934;DHT22;6026;48.784;9.198;2022-12-07T01:11:32;3.60;99.90
11934;DHT22;6026;48.784;9.198;2022-12-07T01:13:59;3.60;99.90
11934;DHT22;6026;48.784;9.198;2022-12-07T01:16:27;3.60;99.90
11934;DHT22;6026;48.784;9.198;2022-12-07T01:18:56;3.60;99.90
11934;DHT22;6026;48.784;9.198;2022-12-07T01:21:24;3.60;99.90
11934;DHT22;6026;48.784;9.198;2022-12-07T01:23:50;3.60;99.90
11934;DHT22;6026;48.784;9.198;2022-12-07T01:26:19;3.50;99.90
11934;DHT22;6026;48.784;9.198;2022-12-07T01:28:45;3.50;99.90
11934;DHT22;6026;48.784;9.198;2022-12-07T01:31:17;3.50;99.90
11934;DHT22;6026;48.784;9.198;2022-12-07T01:33:44;3.50;99.90
11934;DHT22;6026;48.784;9.198;2022-12-07T01:38:54;3.50;99.90
11934;DHT22;6026;48.784;9.198;2022-12-07T01:41:22;3.50;99.90
11934;DHT22;6026;48.784;9.198;2022-12-07T01:46:43;3.50;99.90
11934;DHT22;6026;48.784;9.198;2022-12-07T01:49:14;3.50;99.90
11934;DHT22;6026;48.784;9.198;2022-12-07T01:51:42;3.50;99.90
11934;DHT22;6026;48.784;9.198;2022-12-07T01:54:10;3.50;99.90
11934;DHT22;6026;48.784;9.198;2022-12-07T01:56:37;3.50;99.90
11934;DHT22;6026;48.784;9.198;2022-12-07T01:59:03;3.50;99.90
11934;DHT22;6026;48.784;9.198;2022-12-07T02:01:29;3.50;99.90
11934;DHT22;6026;48.784;9.198;2022-12-07T02:03:54;3.40;99.90
11934;DHT22;6026;48.784;9.198;2022-12-07T02:06:23;3.40;99.90
11934;DHT22;6026;48.784;9.198;2022-12-07T02:08:49;3.50;99.90
11934;DHT22;6026;48.784;9.198;2022-12-07T02:11:15;3.40;99.90
11934;DHT22;6026;48.784;9.198;2022-12-07T02:13:43;3.40;99.90
11934;DHT22;6026;48.784;9.198;2022-12-07T02:25:18;3.40;99.90
11934;DHT22;6026;48.784;9.198;2022-12-07T02:27:56;3.40;99.90
11934;DHT22;6026;48.784;9.198;2022-12-07T02:30:28;3.40;99.90
11934;DHT22;6026;48.784;9.198;2022-12-07T02:33:11;3.40;99.90
11934;DHT22;6026;48.784;9.198;2022-12-07T02:35:40;3.40;99.90
11934;DHT22;6026;48.784;9.198;2022-12-07T02:41:00;3.40;99.90
11934;DHT22;6026;48.784;9.198;2022-12-07T02:43:30;3.40;99.90
11934;DHT22;6026;48.784;9.198;2022-12-07T02:46:25;3.40;99.90
11934;DHT22;6026;48.784;9.198;2022-12-07T02:48:53;3.40;99.90
11934;DHT22;6026;48.784;9.198;2022-12-07T02:51:21;3.40;99.90
11934;DHT22;6026;48.784;9.198;2022-12-07T02:53:46;3.40;99.90
11934;DHT22;6026;48.784;9.198;2022-12-07T03:07:43;3.40;99.90
11934;DHT22;6026;48.784;9.198;2022-12-07T03:10:22;3.40;99.90
11934;DHT22;6026;48.784;9.198;2022-12-07T03:21:16;3.40;99.90
11934;DHT22;6026;48.784;9.198;2022-12-07T03:23:49;3.30;99.90
11934;DHT22;6026;48.784;9.198;2022-12-07T03:26:18;3.40;99.90
11934;DHT22;6026;48.784;9.198;2022-12-07T03:28:50;3.40;99.90
11934;DHT22;6026;48.784;9.198;2022-12-07T03:31:25;3.40;99.90
11934;DHT22;6026;48.784;9.198;2022-12-07T03:34:07;3.40;99.90
11934;DHT22;6026;48.784;9.198;2022-12-07T03:39:33;3.40;99.90
11934;DHT22;6026;48.784;9.198;2022-12-07T03:42:00;3.30;99.90
11934;DHT22;6026;48.784;9.198;2022-12-07T03:44:27;3.40;99.90
11934;DHT22;6026;48.784;9.198;2022-12-07T03:49:31;3.30;99.90
11934;DHT22;6026;48.784;9.198;2022-12-07T03:55:06;3.30;99.90
11934;DHT22;6026;48.784;9.198;2022-12-07T03:57:35;3.30;99.90
11934;DHT22;6026;48.784;9.198;2022-12-07T04:00:04;3.30;99.90
11934;DHT22;6026;48.784;9.198;2022-12-07T04:02:32;3.30;99.90
11934;DHT22;6026;48.784;9.198;2022-12-07T04:04:58;3.20;99.90
11934;DHT22;6026;48.784;9.198;2022-12-07T04:07:24;3.30;99.90
11934;DHT22;6026;48.784;9.198;2022-12-07T04:09:50;3.20;99.90
11934;DHT22;6026;48.784;9.198;2022-12-07T04:12:15;3.20;99.90
11934;DHT22;6026;48.784;9.198;2022-12-07T04:14:41;3.20;99.90
11934;DHT22;6026;48.784;9.198;2022-12-07T04:17:08;3.20;99.90
11934;DHT22;6026;48.784;9.198;2022-12-07T04:19:34;3.10;99.90
11934;DHT22;6026;48.784;9.198;2022-12-07T04:22:01;3.10;99.90
11934;DHT22;6026;48.784;9.198;2022-12-07T04:24:27;3.10;99.90
11934;DHT22;6026;48.784;9.198;2022-12-07T04:26:52;3.10;99.90
11934;DHT22;6026;48.784;9.198;2022-12-07T04:29:19;3.10;99.90
11934;DHT22;6026;48.784;9.198;2022-12-07T04:31:45;3.00;99.90
11934;DHT22;6026;48.784;9.198;2022-12-07T04:34:11;3.00;99.90
11934;DHT22;6026;48.784;9.198;2022-12-07T04:36:37;3.00;99.90
11934;DHT22;6026;48.784;9.198;2022-12-07T04:39:04;3.00;99.90
11934;DHT22;6026;48.784;9.198;2022-12-07T04:41:30;3.00;99.90
11934;DHT22;6026;48.784;9.198;2022-12-07T04:43:58;2.90;99.90
11934;DHT22;6026;48.784;9.198;2022-12-07T04:46:24;3.00;99.90
11934;DHT22;6026;48.784;9.198;2022-12-07T04:48:51;3.00;99.90
11934;DHT22;6026;48.784;9.198;2022-12-07T04:51:20;3.00;99.90
11934;DHT22;6026;48.784;9.198;2022-12-07T04:53:46;3.00;99.90
11934;DHT22;6026;48.784;9.198;2022-12-07T04:56:14;3.00;99.90
11934;DHT22;6026;48.784;9.198;2022-12-07T04:58:40;3.00;99.90
11934;DHT22;6026;48.784;9.198;2022-12-07T05:01:06;3.00;99.90
11934;DHT22;6026;48.784;9.198;2022-12-07T05:03:32;3.00;99.90
11934;DHT22;6026;48.784;9.198;2022-12-07T05:05:57;3.00;99.90
11934;DHT22;6026;48.784;9.198;2022-12-07T05:08:23;3.00;99.90
11934;DHT22;6026;48.784;9.198;2022-12-07T05:10:49;3.00;99.90
11934;DHT22;6026;48.784;9.198;2022-12-07T05:13:15;3.00;99.90
11934;DHT22;6026;48.784;9.198;2022-12-07T05:15:40;3.00;99.90
11934;DHT22;6026;48.784;9.198;2022-12-07T05:18:07;2.90;99.90
11934;DHT22;6026;48.784;9.198;2022-12-07T05:20:34;3.00;99.90
11934;DHT22;6026;48.784;9.198;2022-12-07T05:22:59;2.90;99.90
11934;DHT22;6026;48.784;9.198;2022-12-07T05:25:25;2.90;99.90
11934;DHT22;6026;48.784;9.198;2022-12-07T05:27:51;2.90;99.90
11934;DHT22;6026;48.784;9.198;2022-12-07T05:30:16;2.90;99.90
11934;DHT22;6026;48.784;9.198;2022-12-07T05:32:42;2.80;99.90
11934;DHT22;6026;48.784;9.198;2022-12-07T05:35:08;2.80;99.90
11934;DHT22;6026;48.784;9.198;2022-12-07T05:37:33;2.80;99.90
11934;DHT22;6026;48.784;9.198;2022-12-07T05:39:59;2.70;99.90
11934;DHT22;6026;48.784;9.198;2022-12-07T05:42:24;2.60;99.90
11934;DHT22;6026;48.784;9.198;2022-12-07T05:44:50;2.60;99.90
11934;DHT22;6026;48.784;9.198;2022-12-07T05:47:16;2.60;99.90
11934;DHT22;6026;48.784;9.198;2022-12-07T05:49:41;2.50;99.90
11934;DHT22;6026;48.784;9.198;2022-12-07T05:52:07;2.50;99.90
11934;DHT22;6026;48.784;9.198;2022-12-07T05:54:33;2.40;99.90
11934;DHT22;6026;48.784;9.198;2022-12-07T05:56:59;2.40;99.90
11934;DHT22;6026;48.784;9.198;2022-12-07T05:59:25;2.40;99.90
11934;DHT22;6026;48.784;9.198;2022-12-07T06:01:57;2.40;99.90
11934;DHT22;6026;48.784;9.198;2022-12-07T06:04:25;2.40;99.90
11934;DHT22;6026;48.784;9.198;2022-12-07T06:06:51;2.40;99.90
11934;DHT22;6026;48.784;9.198;2022-12-07T06:09:17;2.30;99.90
11934;DHT22;6026;48.784;9.198;2022-12-07T06:11:44;2.30;99.90
11934;DHT22;6026;48.784;9.198;2022-12-07T06:14:28;2.20;99.90
11934;DHT22;6026;48.784;9.198;2022-12-07T06:16:54;2.30;99.90
11934;DHT22;6026;48.784;9.198;2022-12-07T06:19:19;2.30;99.90
11934;DHT22;6026;48.784;9.198;2022-12-07T06:21:45;2.30;99.90
11934;DHT22;6026;48.784;9.198;2022-12-07T06:24:12;2.40;99.90
11934;DHT22;6026;48.784;9.198;2022-12-07T06:26:38;2.40;99.90
11934;DHT22;6026;48.784;9.198;2022-12-07T06:29:03;2.40;99.90
11934;DHT22;6026;48.784;9.198;2022-12-07T06:31:29;2.40;99.90
11934;DHT22;6026;48.784;9.198;2022-12-07T06:34:03;2.40;99.90
11934;DHT22;6026;48.784;9.198;2022-12-07T06:36:28;2.40;99.90
11934;DHT22;6026;48.784;9.198;2022-12-07T06:38:54;2.40;99.90
11934;DHT22;6026;48.784;9.198;2022-12-07T06:41:20;2.40;99.90
11934;DHT22;6026;48.784;9.198;2022-12-07T06:43:46;2.40;99.90
11934;DHT22;6026;48.784;9.198;2022-12-07T06:46:12;2.50;99.90
11934;DHT22;6026;48.784;9.198;2022-12-07T06:48:38;2.50;99.90
11934;DHT22;6026;48.784;9.198;2022-12-07T06:51:03;2.40;99.90
11934;DHT22;6026;48.784;9.198;2022-12-07T06:53:29;2.50;99.90
11934;DHT22;6026;48.784;9.198;2022-12-07T06:55:54;2.50;99.90
11934;DHT22;6026;48.784;9.198;2022-12-07T06:58:20;2.50;99.90
11934;DHT22;6026;48.784;9.198;2022-12-07T07:00:47;2.50;99.90
11934;DHT22;6026;48.784;9.198;2022-12-07T07:03:13;2.50;99.90
11934;DHT22;6026;48.784;9.198;2022-12-07T07:05:39;2.60;99.90
11934;DHT22;6026;48.784;9.198;2022-12-07T07:08:04;2.60;99.90
11934;DHT22;6026;48.784;9.198;2022-12-07T07:10:30;2.60;99.90
11934;DHT22;6026;48.784;9.198;2022-12-07T07:12:56;2.60;99.90
11934;DHT22;6026;48.784;9.198;2022-12-07T07:15:21;2.60;99.90
11934;DHT22;6026;48.784;9.198;2022-12-07T07:17:47;2.60;99.90
11934;DHT22;6026;48.784;9.198;2022-12-07T07:20:13;2.70;99.90
11934;DHT22;6026;48.784;9.198;2022-12-07T07:22:39;2.70;99.90
11934;DHT22;6026;48.784;9.198;2022-12-07T07:25:04;2.70;99.90
11934;DHT22;6026;48.784;9.198;2022-12-07T07:27:31;2.70;99.90
11934;DHT22;6026;48.784;9.198;2022-12-07T07:29:56;2.70;99.90
11934;DHT22;6026;48.784;9.198;2022-12-07T07:32:22;2.70;99.90
11934;DHT22;6026;48.784;9.198;2022-12-07T07:34:48;2.80;99.90
11934;DHT22;6026;48.784;9.198;2022-12-07T07:37:14;2.80;99.90
11934;DHT22;6026;48.784;9.198;2022-12-07T07:39:39;2.80;99.90
11934;DHT22;6026;48.784;9.198;2022-12-07T07:42:05;2.80;99.90
11934;DHT22;6026;48.784;9.198;2022-12-07T07:44:33;2.90;99.90
11934;DHT22;6026;48.784;9.198;2022-12-07T07:46:58;2.90;99.90
11934;DHT22;6026;48.784;9.198;2022-12-07T07:49:24;2.90;99.90
11934;DHT22;6026;48.784;9.198;2022-12-07T07:51:49;3.00;99.90
11934;DHT22;6026;48.784;9.198;2022-12-07T07:54:15;3.00;99.90
11934;DHT22;6026;48.784;9.198;2022-12-07T07:56:41;3.00;99.90
11934;DHT22;6026;48.784;9.198;2022-12-07T07:59:06;3.00;99.90
11934;DHT22;6026;48.784;9.198;2022-12-07T08:01:32;3.00;99.90
11934;DHT22;6026;48.784;9.198;2022-12-07T08:03:57;3.10;99.90
11934;DHT22;6026;48.784;9.198;2022-12-07T08:06:23;3.10;99.90
11934;DHT22;6026;48.784;9.198;2022-12-07T08:08:48;3.10;99.90
11934;DHT22;6026;48.784;9.198;2022-12-07T08:11:14;3.20;99.90
11934;DHT22;6026;48.784;9.198;2022-12-07T08:13:39;3.20;99.90
11934;DHT22;6026;48.784;9.198;2022-12-07T08:16:07;3.20;99.90
11934;DHT22;6026;48.784;9.198;2022-12-07T08:18:40;3.30;99.90
11934;DHT22;6026;48.784;9.198;2022-12-07T08:21:07;3.30;99.90
11934;DHT22;6026;48.784;9.198;2022-12-07T08:23:34;3.40;99.90
11934;DHT22;6026;48.784;9.198;2022-12-07T08:26:05;3.40;99.90
11934;DHT22;6026;48.784;9.198;2022-12-07T08:28:31;3.50;99.90
11934;DHT22;6026;48.784;9.198;2022-12-07T08:31:10;3.50;99.90
11934;DHT22;6026;48.784;9.198;2022-12-07T08:33:36;3.50;99.90
11934;DHT22;6026;48.784;9.198;2022-12-07T08:36:04;3.50;99.90
11934;DHT22;6026;48.784;9.198;2022-12-07T08:38:30;3.60;99.90
11934;DHT22;6026;48.784;9.198;2022-12-07T08:40:57;3.60;99.90
11934;DHT22;6026;48.784;9.198;2022-12-07T08:43:23;3.70;99.90
11934;DHT22;6026;48.784;9.198;2022-12-07T08:48:37;3.80;99.90
11934;DHT22;6026;48.784;9.198;2022-12-07T08:51:04;3.80;99.90
11934;DHT22;6026;48.784;9.198;2022-12-07T08:53:30;3.90;99.90
11934;DHT22;6026;48.784;9.198;2022-12-07T08:55:56;3.90;99.90
11934;DHT22;6026;48.784;9.198;2022-12-07T08:58:23;3.90;99.90
11934;DHT22;6026;48.784;9.198;2022-12-07T09:00:48;4.00;99.90
11934;DHT22;6026;48.784;9.198;2022-12-07T09:03:14;4.00;99.90
11934;DHT22;6026;48.784;9.198;2022-12-07T09:05:39;4.10;99.90
11934;DHT22;6026;48.784;9.198;2022-12-07T09:08:05;4.10;99.90
11934;DHT22;6026;48.784;9.198;2022-12-07T09:10:31;4.10;99.90
11934;DHT22;6026;48.784;9.198;2022-12-07T09:12:57;4.20;99.90
11934;DHT22;6026;48.784;9.198;2022-12-07T09:15:29;4.30;99.90
11934;DHT22;6026;48.784;9.198;2022-12-07T09:17:55;4.30;99.90
11934;DHT22;6026;48.784;9.198;2022-12-07T09:20:20;4.30;99.90
11934;DHT22;6026;48.784;9.198;2022-12-07T09:22:46;4.40;99.90
11934;DHT22;6026;48.784;9.198;2022-12-07T09:25:12;4.40;99.90
11934;DHT22;6026;48.784;9.198;2022-12-07T09:27:37;4.50;99.90
11934;DHT22;6026;48.784;9.198;2022-12-07T09:30:04;4.60;99.90
11934;DHT22;6026;48.784;9.198;2022-12-07T09:32:30;4.60;99.90
11934;DHT22;6026;48.784;9.198;2022-12-07T09:34:55;4.70;99.90
11934;DHT22;6026;48.784;9.198;2022-12-07T09:37:21;4.80;99.90
11934;DHT22;6026;48.784;9.198;2022-12-07T09:39:47;4.90;99.90
11934;DHT22;6026;48.784;9.198;2022-12-07T09:42:47;5.00;99.90
11934;DHT22;6026;48.784;9.198;2022-12-07T09:45:22;5.10;99.90
11934;DHT22;6026;48.784;9.198;2022-12-07T09:47:48;5.20;99.90
11934;DHT22;6026;48.784;9.198;2022-12-07T09:50:26;5.20;99.90
11934;DHT22;6026;48.784;9.198;2022-12-07T09:52:54;5.30;99.90
11934;DHT22;6026;48.784;9.198;2022-12-07T09:55:26;5.30;99.90
11934;DHT22;6026;48.784;9.198;2022-12-07T09:57:52;5.40;99.90
11934;DHT22;6026;48.784;9.198;2022-12-07T10:00:20;5.40;99.90
11934;DHT22;6026;48.784;9.198;2022-12-07T10:02:50;5.50;99.90
11934;DHT22;6026;48.784;9.198;2022-12-07T10:05:44;5.50;99.90
11934;DHT22;6026;48.784;9.198;2022-12-07T10:08:11;5.50;99.90
11934;DHT22;6026;48.784;9.198;2022-12-07T10:10:37;5.60;99.90
11934;DHT22;6026;48.784;9.198;2022-12-07T10:13:15;5.50;99.90
11934;DHT22;6026;48.784;9.198;2022-12-07T10:18:32;5.50;99.90
11934;DHT22;6026;48.784;9.198;2022-12-07T10:23:29;5.50;99.90
11934;DHT22;6026;48.784;9.198;2022-12-07T10:25:54;5.50;99.90
11934;DHT22;6026;48.784;9.198;2022-12-07T10:28:21;5.50;99.90
11934;DHT22;6026;48.784;9.198;2022-12-07T10:30:48;5.50;99.90
11934;DHT22;6026;48.784;9.198;2022-12-07T10:33:36;5.60;99.90
11934;DHT22;6026;48.784;9.198;2022-12-07T10:36:26;5.60;99.90
11934;DHT22;6026;48.784;9.198;2022-12-07T10:38:59;5.60;99.90
11934;DHT22;6026;48.784;9.198;2022-12-07T10:41:25;5.70;99.90
11934;DHT22;6026;48.784;9.198;2022-12-07T10:43:56;5.80;99.90
11934;DHT22;6026;48.784;9.198;2022-12-07T10:57:26;5.70;99.90
11934;DHT22;6026;48.784;9.198;2022-12-07T11:00:08;5.70;99.90
11934;DHT22;6026;48.784;9.198;2022-12-07T11:02:49;5.70;99.90
11934;DHT22;6026;48.784;9.198;2022-12-07T11:08:23;5.70;99.90
11934;DHT22;6026;48.784;9.198;2022-12-07T11:11:16;5.60;99.90
11934;DHT22;6026;48.784;9.198;2022-12-07T11:17:01;5.60;99.90
11934;DHT22;6026;48.784;9.198;2022-12-07T11:22:16;5.40;99.90
11934;DHT22;6026;48.784;9.198;2022-12-07T11:25:14;5.40;99.90
11934;DHT22;6026;48.784;9.198;2022-12-07T11:28:29;5.40;99.90
11934;DHT22;6026;48.784;9.198;2022-12-07T11:31:12;5.30;99.90
11934;DHT22;6026;48.784;9.198;2022-12-07T11:33:48;5.30;99.90
11934;DHT22;6026;48.784;9.198;2022-12-07T11:36:41;5.30;99.90
11934;DHT22;6026;48.784;9.198;2022-12-07T11:39:50;5.30;99.90
11934;DHT22;6026;48.784;9.198;2022-12-07T11:42:37;5.30;99.90
11934;DHT22;6026;48.784;9.198;2022-12-07T11:45:15;5.20;99.90
11934;DHT22;6026;48.784;9.198;2022-12-07T11:47:48;5.20;99.90
11934;DHT22;6026;48.784;9.198;2022-12-07T11:50:42;5.20;99.90
11934;DHT22;6026;48.784;9.198;2022-12-07T11:53:16;5.10;99.90
11934;DHT22;6026;48.784;9.198;2022-12-07T11:55:56;5.10;99.90
11934;DHT22;6026;48.784;9.198;2022-12-07T12:03:36;5.00;99.90
11934;DHT22;6026;48.784;9.198;2022-12-07T12:06:03;5.00;99.90
11934;DHT22;6026;48.784;9.198;2022-12-07T12:08:34;5.00;99.90
11934;DHT22;6026;48.784;9.198;2022-12-07T12:22:20;4.80;99.90
11934;DHT22;6026;48.784;9.198;2022-12-07T12:24:51;4.80;99.90
11934;DHT22;6026;48.784;9.198;2022-12-07T12:27:27;4.80;99.90
11934;DHT22;6026;48.784;9.198;2022-12-07T12:29:58;4.80;99.90
11934;DHT22;6026;48.784;9.198;2022-12-07T12:32:41;4.80;99.90
11934;DHT22;6026;48.784;9.198;2022-12-07T12:37:54;4.80;99.90
11934;DHT22;6026;48.784;9.198;2022-12-07T12:42:54;4.80;99.90
11934;DHT22;6026;48.784;9.198;2022-12-07T12:54:14;4.90;99.90
11934;DHT22;6026;48.784;9.198;2022-12-07T12:56:51;4.80;99.90
11934;DHT22;6026;48.784;9.198;2022-12-07T13:01:50;4.80;99.90
11934;DHT22;6026;48.784;9.198;2022-12-07T13:06:50;4.90;99.90
11934;DHT22;6026;48.784;9.198;2022-12-07T13:09:22;4.90;99.90
11934;DHT22;6026;48.784;9.198;2022-12-07T13:11:50;5.00;99.90
11934;DHT22;6026;48.784;9.198;2022-12-07T13:14:51;4.90;99.90
11934;DHT22;6026;48.784;9.198;2022-12-07T13:20:00;5.00;99.90
11934;DHT22;6026;48.784;9.198;2022-12-07T13:27:55;5.00;99.90
11934;DHT22;6026;48.784;9.198;2022-12-07T13:30:23;5.00;99.90
11934;DHT22;6026;48.784;9.198;2022-12-07T13:32:56;5.00;99.90
11934;DHT22;6026;48.784;9.198;2022-12-07T13:35:36;5.00;99.90
11934;DHT22;6026;48.784;9.198;2022-12-07T13:38:25;5.00;99.90
11934;DHT22;6026;48.784;9.198;2022-12-07T13:41:13;5.00;99.90
11934;DHT22;6026;48.784;9.198;2022-12-07T13:44:19;4.90;99.90
11934;DHT22;6026;48.784;9.198;2022-12-07T13:46:50;4.90;99.90
11934;DHT22;6026;48.784;9.198;2022-12-07T13:49:26;4.90;99.90
11934;DHT22;6026;48.784;9.198;2022-12-07T13:51:52;4.90;99.90
11934;DHT22;6026;48.784;9.198;2022-12-07T13:54:19;4.90;99.90
11934;DHT22;6026;48.784;9.198;2022-12-07T13:56:50;4.90;99.90
11934;DHT22;6026;48.784;9.198;2022-12-07T13:59:21;4.90;99.90
11934;DHT22;6026;48.784;9.198;2022-12-07T14:01:49;4.90;99.90
11934;DHT22;6026;48.784;9.198;2022-12-07T14:04:34;4.90;99.90
11934;DHT22;6026;48.784;9.198;2022-12-07T14:07:15;4.90;99.90
11934;DHT22;6026;48.784;9.198;2022-12-07T14:09:57;4.90;99.90
11934;DHT22;6026;48.784;9.198;2022-12-07T14:12:25;4.90;99.90
11934;DHT22;6026;48.784;9.198;2022-12-07T14:14:51;4.80;99.90
11934;DHT22;6026;48.784;9.198;2022-12-07T14:17:19;4.90;99.90
11934;DHT22;6026;48.784;9.198;2022-12-07T14:19:47;4.90;99.90
11934;DHT22;6026;48.784;9.198;2022-12-07T14:22:23;4.90;99.90
11934;DHT22;6026;48.784;9.198;2022-12-07T14:24:49;4.90;99.90
11934;DHT22;6026;48.784;9.198;2022-12-07T14:27:21;4.90;99.90
11934;DHT22;6026;48.784;9.198;2022-12-07T14:29:47;4.80;99.90
11934;DHT22;6026;48.784;9.198;2022-12-07T14:34:59;4.80;99.90
11934;DHT22;6026;48.784;9.198;2022-12-07T14:37:25;4.80;99.90
11934;DHT22;6026;48.784;9.198;2022-12-07T14:39:51;4.80;99.90
11934;DHT22;6026;48.784;9.198;2022-12-07T14:42:17;4.80;99.90
11934;DHT22;6026;48.784;9.198;2022-12-07T14:44:43;4.80;99.90
11934;DHT22;6026;48.784;9.198;2022-12-07T14:47:12;4.80;99.90
11934;DHT22;6026;48.784;9.198;2022-12-07T14:49:38;4.70;99.90
11934;DHT22;6026;48.784;9.198;2022-12-07T14:52:03;4.70;99.90
11934;DHT22;6026;48.784;9.198;2022-12-07T14:54:31;4.70;99.90
11934;DHT22;6026;48.784;9.198;2022-12-07T14:56:57;4.70;99.90
11934;DHT22;6026;48.784;9.198;2022-12-07T14:59:23;4.70;99.90
11934;DHT22;6026;48.784;9.198;2022-12-07T15:01:49;4.70;99.90
11934;DHT22;6026;48.784;9.198;2022-12-07T15:04:15;4.60;99.90
11934;DHT22;6026;48.784;9.198;2022-12-07T15:06:40;4.60;99.90
11934;DHT22;6026;48.784;9.198;2022-12-07T15:09:10;4.60;99.90
11934;DHT22;6026;48.784;9.198;2022-12-07T15:11:36;4.60;99.90
11934;DHT22;6026;48.784;9.198;2022-12-07T15:14:02;4.60;99.90
11934;DHT22;6026;48.784;9.198;2022-12-07T15:16:34;4.60;99.90
11934;DHT22;6026;48.784;9.198;2022-12-07T15:19:00;4.60;99.90
11934;DHT22;6026;48.784;9.198;2022-12-07T15:21:25;4.50;99.90
11934;DHT22;6026;48.784;9.198;2022-12-07T15:23:51;4.50;99.90
11934;DHT22;6026;48.784;9.198;2022-12-07T15:26:17;4.50;99.90
11934;DHT22;6026;48.784;9.198;2022-12-07T15:28:42;4.40;99.90
11934;DHT22;6026;48.784;9.198;2022-12-07T15:31:16;4.40;99.90
11934;DHT22;6026;48.784;9.198;2022-12-07T15:33:42;4.30;99.90
11934;DHT22;6026;48.784;9.198;2022-12-07T15:36:08;4.30;99.90
11934;DHT22;6026;48.784;9.198;2022-12-07T15:38:37;4.30;99.90
11934;DHT22;6026;48.784;9.198;2022-12-07T15:41:03;4.30;99.90
11934;DHT22;6026;48.784;9.198;2022-12-07T15:43:29;4.30;99.90
11934;DHT22;6026;48.784;9.198;2022-12-07T15:46:13;4.30;99.90
11934;DHT22;6026;48.784;9.198;2022-12-07T15:48:39;4.20;99.90
11934;DHT22;6026;48.784;9.198;2022-12-07T15:51:06;4.20;99.90
11934;DHT22;6026;48.784;9.198;2022-12-07T15:53:33;4.20;99.90
11934;DHT22;6026;48.784;9.198;2022-12-07T15:55:59;4.10;99.90
11934;DHT22;6026;48.784;9.198;2022-12-07T15:58:25;4.10;99.90
11934;DHT22;6026;48.784;9.198;2022-12-07T16:00:51;4.10;99.90
11934;DHT22;6026;48.784;9.198;2022-12-07T16:03:17;4.10;99.90
11934;DHT22;6026;48.784;9.198;2022-12-07T16:05:49;4.00;99.90
11934;DHT22;6026;48.784;9.198;2022-12-07T16:08:14;4.00;99.90
11934;DHT22;6026;48.784;9.198;2022-12-07T16:10:40;4.00;99.90
11934;DHT22;6026;48.784;9.198;2022-12-07T16:13:11;3.90;99.90
11934;DHT22;6026;48.784;9.198;2022-12-07T16:15:39;4.00;99.90
11934;DHT22;6026;48.784;9.198;2022-12-07T16:18:04;3.90;99.90
11934;DHT22;6026;48.784;9.198;2022-12-07T16:20:30;3.90;99.90
11934;DHT22;6026;48.784;9.198;2022-12-07T16:22:55;3.90;99.90
11934;DHT22;6026;48.784;9.198;2022-12-07T16:25:21;3.80;99.90
11934;DHT22;6026;48.784;9.198;2022-12-07T16:27:46;3.80;99.90
11934;DHT22;6026;48.784;9.198;2022-12-07T16:30:13;3.80;99.90
11934;DHT22;6026;48.784;9.198;2022-12-07T16:32:39;3.80;99.90
11934;DHT22;6026;48.784;9.198;2022-12-07T16:35:04;3.80;99.90
11934;DHT22;6026;48.784;9.198;2022-12-07T16:37:30;3.80;99.90
11934;DHT22;6026;48.784;9.198;2022-12-07T16:39:55;3.70;99.90
11934;DHT22;6026;48.784;9.198;2022-12-07T16:42:21;3.70;99.90
11934;DHT22;6026;48.784;9.198;2022-12-07T16:44:47;3.70;99.90
11934;DHT22;6026;48.784;9.198;2022-12-07T16:47:12;3.70;99.90
11934;DHT22;6026;48.784;9.198;2022-12-07T16:49:38;3.60;99.90
11934;DHT22;6026;48.784;9.198;2022-12-07T16:52:04;3.60;99.90
11934;DHT22;6026;48.784;9.198;2022-12-07T16:54:29;3.50;99.90
11934;DHT22;6026;48.784;9.198;2022-12-07T16:56:58;3.50;99.90
11934;DHT22;6026;48.784;9.198;2022-12-07T16:59:24;3.50;99.90
11934;DHT22;6026;48.784;9.198;2022-12-07T17:01:55;3.50;99.90
11934;DHT22;6026;48.784;9.198;2022-12-07T17:04:21;3.40;99.90
11934;DHT22;6026;48.784;9.198;2022-12-07T17:06:46;3.40;99.90
11934;DHT22;6026;48.784;9.198;2022-12-07T17:09:12;3.30;99.90
11934;DHT22;6026;48.784;9.198;2022-12-07T17:11:38;3.30;99.90
11934;DHT22;6026;48.784;9.198;2022-12-07T17:14:32;3.20;99.90
11934;DHT22;6026;48.784;9.198;2022-12-07T17:17:16;3.20;99.90
11934;DHT22;6026;48.784;9.198;2022-12-07T17:19:42;3.20;99.90
11934;DHT22;6026;48.784;9.198;2022-12-07T17:22:07;3.20;99.90
11934;DHT22;6026;48.784;9.198;2022-12-07T17:24:33;3.10;99.90
11934;DHT22;6026;48.784;9.198;2022-12-07T17:26:59;3.10;99.90
11934;DHT22;6026;48.784;9.198;2022-12-07T17:29:24;3.10;99.90
11934;DHT22;6026;48.784;9.198;2022-12-07T17:31:50;3.10;99.90
11934;DHT22;6026;48.784;9.198;2022-12-07T17:34:16;3.10;99.90
11934;DHT22;6026;48.784;9.198;2022-12-07T17:36:41;3.10;99.90
11934;DHT22;6026;48.784;9.198;2022-12-07T17:39:13;3.10;99.90
11934;DHT22;6026;48.784;9.198;2022-12-07T17:41:39;3.10;99.90
11934;DHT22;6026;48.784;9.198;2022-12-07T17:44:24;3.10;99.90
11934;DHT22;6026;48.784;9.198;2022-12-07T17:46:51;3.20;99.90
11934;DHT22;6026;48.784;9.198;2022-12-07T17:49:23;3.20;99.90
11934;DHT22;6026;48.784;9.198;2022-12-07T17:51:49;3.20;99.90
11934;DHT22;6026;48.784;9.198;2022-12-07T17:54:33;3.20;99.90
11934;DHT22;6026;48.784;9.198;2022-12-07T17:56:59;3.30;99.90
11934;DHT22;6026;48.784;9.198;2022-12-07T17:59:24;3.30;99.90
11934;DHT22;6026;48.784;9.198;2022-12-07T18:01:50;3.30;99.90
11934;DHT22;6026;48.784;9.198;2022-12-07T18:04:16;3.30;99.90
11934;DHT22;6026;48.784;9.198;2022-12-07T18:06:41;3.30;99.90
11934;DHT22;6026;48.784;9.198;2022-12-07T18:09:08;3.30;99.90
11934;DHT22;6026;48.784;9.198;2022-12-07T18:11:34;3.30;99.90
11934;DHT22;6026;48.784;9.198;2022-12-07T18:14:01;3.30;99.90